Terminal Aerodrome Forecast
Issued by NWS

Home | Current Version | Previous Version | Text Only | Print | Product List | Glossary Off
Versions: 1 2 3 4 5 6 7 8 9 10 11 12

000
FTUS43 KICT 082300
TAFSLN
TAF
KSLN 082320Z 0900/0924 34009KT P6SM SKC
     FM090200 VRB05KT P6SM SKC
     FM091500 16008KT P6SM SKC
     FM092000 16012KT P6SM SCT100=

USA.gov is the U.S. government's official web portal to all federal, state and local government web resources and services.